Time;durP1;ratioP1;P1;durP2;ratioP2;P2;SDS_P1;SDS_P2;PMS_P1;PMS_P2;Temp;Humidity;BMP_temperature;BMP_pressure;BME280_temperature;BME280_humidity;BME280_pressure;Samples;Min_cycle;Max_cycle;Signal;HPM_P1;HPM_P2
2023/07/22 00:01:24;;;;;;;6.03;3.33;;;20.40;99.90;;;;;;4177009;28;20376;-67
2023/07/22 00:03:25;;;;;;;4.45;2.88;;;20.30;99.90;;;;;;4176578;28;20477;-65
2023/07/22 00:05:26;;;;;;;4.60;2.95;;;20.30;99.90;;;;;;4176543;28;20029;-67
2023/07/22 00:07:27;;;;;;;4.18;3.15;;;20.30;99.90;;;;;;4176108;28;20037;-62
2023/07/22 00:09:28;;;;;;;6.97;3.10;;;20.30;99.90;;;;;;4177506;28;20481;-63
2023/07/22 00:11:30;;;;;;;4.80;2.65;;;20.20;99.90;;;;;;4176332;28;20075;-63
2023/07/22 00:13:32;;;;;;;7.30;3.40;;;20.20;99.90;;;;;;4176931;28;20071;-64
2023/07/22 00:15:33;;;;;;;4.88;3.33;;;20.20;99.90;;;;;;4176290;28;20029;-62
2023/07/22 00:17:34;;;;;;;4.00;2.78;;;20.20;99.90;;;;;;4176526;28;20052;-63
2023/07/22 00:19:35;;;;;;;4.32;2.55;;;20.20;99.90;;;;;;4176244;28;20029;-62
2023/07/22 00:21:36;;;;;;;4.25;3.10;;;20.10;99.90;;;;;;4177060;28;20061;-63
2023/07/22 00:23:37;;;;;;;4.53;2.80;;;20.10;99.90;;;;;;4176172;28;20033;-62
2023/07/22 00:25:38;;;;;;;5.13;3.00;;;20.10;99.90;;;;;;4177292;28;20457;-63
2023/07/22 00:27:41;;;;;;;6.18;3.35;;;20.10;99.90;;;;;;4176220;28;20036;-62
2023/07/22 00:29:42;;;;;;;8.80;3.10;;;20.10;99.90;;;;;;4177247;28;20469;-63
2023/07/22 00:31:44;;;;;;;6.68;3.15;;;20.10;99.90;;;;;;4176161;28;20040;-63
2023/07/22 00:33:45;;;;;;;4.03;2.85;;;20.10;99.90;;;;;;4176680;28;20033;-63
2023/07/22 00:35:52;;;;;;;8.88;2.40;;;20.10;99.90;;;;;;4176303;28;20091;-62
2023/07/22 00:37:53;;;;;;;10.55;4.85;;;20.20;99.90;;;;;;4175656;28;20037;-63
2023/07/22 00:39:55;;;;;;;5.55;3.38;;;20.10;99.90;;;;;;4176937;28;20033;-62
2023/07/22 00:41:56;;;;;;;6.43;3.42;;;20.10;99.90;;;;;;4175814;28;20094;-62
2023/07/22 00:43:57;;;;;;;5.00;4.07;;;20.10;99.90;;;;;;4177214;28;20032;-62
2023/07/22 00:45:59;;;;;;;6.55;3.83;;;20.10;99.90;;;;;;4175980;28;20060;-62
2023/07/22 00:48:00;;;;;;;9.60;4.15;;;20.10;99.90;;;;;;4178390;28;20070;-62
2023/07/22 00:50:03;;;;;;;9.38;5.60;;;20.10;99.90;;;;;;4178743;28;20021;-61
2023/07/22 00:52:05;;;;;;;11.82;7.32;;;20.10;99.90;;;;;;4161567;28;20464;-62
2023/07/22 00:54:06;;;;;;;9.45;7.47;;;20.10;99.90;;;;;;4179374;28;20409;-65
2023/07/22 00:56:07;;;;;;;12.90;8.52;;;20.10;99.90;;;;;;4178874;28;20465;-62
2023/07/22 00:58:08;;;;;;;7.32;4.88;;;20.10;99.90;;;;;;4179043;28;20074;-61
2023/07/22 01:00:11;;;;;;;4.47;3.53;;;20.10;99.90;;;;;;4179817;28;20028;-62
2023/07/22 01:02:13;;;;;;;4.82;3.17;;;20.10;99.90;;;;;;4179026;28;20017;-62
2023/07/22 01:04:16;;;;;;;4.50;3.22;;;20.10;99.90;;;;;;4178901;28;20045;-62
2023/07/22 01:06:18;;;;;;;7.20;2.97;;;20.10;99.90;;;;;;4179014;28;20537;-62
2023/07/22 01:08:19;;;;;;;4.60;3.00;;;20.10;99.90;;;;;;4179356;28;20416;-67
2023/07/22 01:10:21;;;;;;;3.58;2.75;;;20.10;99.90;;;;;;4179225;28;20071;-62
2023/07/22 01:12:22;;;;;;;4.35;3.00;;;20.00;99.90;;;;;;4178791;28;20457;-62
2023/07/22 01:14:25;;;;;;;4.78;3.03;;;20.00;99.90;;;;;;4178471;28;20075;-62
2023/07/22 01:16:28;;;;;;;6.30;3.40;;;19.90;99.90;;;;;;4178232;28;20083;-62
2023/07/22 01:18:29;;;;;;;2.90;2.60;;;19.90;99.90;;;;;;4179759;28;20029;-62
2023/07/22 01:20:30;;;;;;;6.60;2.65;;;19.90;99.90;;;;;;4178181;28;20033;-64
2023/07/22 01:22:34;;;;;;;4.38;2.92;;;19.90;99.90;;;;;;4179817;28;20473;-62
2023/07/22 01:24:35;;;;;;;3.20;2.60;;;19.90;99.90;;;;;;4160105;28;20072;-62
2023/07/22 01:26:37;;;;;;;5.43;2.30;;;19.90;99.90;;;;;;4179318;28;20029;-62
2023/07/22 01:28:38;;;;;;;4.32;2.53;;;19.90;99.90;;;;;;4178185;28;20040;-64
2023/07/22 01:30:39;;;;;;;4.50;2.47;;;19.90;99.90;;;;;;4179376;28;20080;-63
2023/07/22 01:32:40;;;;;;;5.57;2.60;;;19.90;99.90;;;;;;4178306;28;20073;-62
2023/07/22 01:34:41;;;;;;;5.03;2.58;;;19.90;99.90;;;;;;4179365;28;20037;-63
2023/07/22 01:36:44;;;;;;;2.60;2.40;;;19.90;99.90;;;;;;4178412;28;20029;-63
2023/07/22 01:38:45;;;;;;;4.00;2.88;;;19.90;99.90;;;;;;4178852;28;20037;-69
2023/07/22 01:40:47;;;;;;;2.83;2.42;;;19.90;99.90;;;;;;4178845;28;20025;-69
2023/07/22 01:42:48;;;;;;;4.22;2.47;;;19.80;99.90;;;;;;4177932;28;20033;-63
2023/07/22 01:44:50;;;;;;;3.33;2.33;;;19.80;99.90;;;;;;4177889;28;20090;-63
2023/07/22 01:46:51;;;;;;;4.32;2.60;;;19.80;99.90;;;;;;4177265;28;20053;-63
2023/07/22 01:48:52;;;;;;;4.80;2.42;;;19.80;99.90;;;;;;4179371;28;21667;-63
2023/07/22 01:50:53;;;;;;;3.63;2.55;;;19.70;99.90;;;;;;4177970;28;20021;-63
2023/07/22 01:52:55;;;;;;;4.97;2.10;;;19.70;99.90;;;;;;4161451;28;20210;-63
2023/07/22 01:54:56;;;;;;;4.13;2.70;;;19.70;99.90;;;;;;4178540;28;20071;-65
2023/07/22 01:56:57;;;;;;;4.35;2.67;;;19.70;99.90;;;;;;4179378;28;20071;-69
2023/07/22 01:58:58;;;;;;;5.07;2.88;;;19.60;99.90;;;;;;4159468;28;20095;-69
2023/07/22 02:00:59;;;;;;;4.75;2.75;;;19.50;99.90;;;;;;4178423;28;20117;-69
2023/07/22 02:03:01;;;;;;;4.88;2.63;;;19.50;99.90;;;;;;4178081;28;20469;-70
2023/07/22 02:05:02;;;;;;;3.20;2.47;;;19.40;99.90;;;;;;4178917;28;20025;-67
2023/07/22 02:07:03;;;;;;;4.80;2.70;;;19.40;99.90;;;;;;4177945;28;20399;-67
2023/07/22 02:09:08;;;;;;;4.43;2.30;;;19.40;99.90;;;;;;4178589;28;20082;-63
2023/07/22 02:11:10;;;;;;;6.03;3.65;;;19.40;99.90;;;;;;4178506;28;20410;-63
2023/07/22 02:13:12;;;;;;;4.97;3.28;;;19.40;99.90;;;;;;4178424;28;20021;-63
2023/07/22 02:15:13;;;;;;;4.78;3.55;;;19.30;99.90;;;;;;4178249;28;20552;-63
2023/07/22 02:17:14;;;;;;;5.13;3.10;;;19.20;99.90;;;;;;4177976;28;20037;-64
2023/07/22 02:19:16;;;;;;;4.00;3.00;;;19.20;99.90;;;;;;4178388;28;20131;-64
2023/07/22 02:21:17;;;;;;;6.60;2.80;;;19.20;99.90;;;;;;4177403;28;20037;-66
2023/07/22 02:23:18;;;;;;;3.58;3.13;;;19.30;99.90;;;;;;4179311;28;20170;-63
2023/07/22 02:25:19;;;;;;;4.90;2.88;;;19.30;99.90;;;;;;4177721;28;20531;-64
2023/07/22 02:27:20;;;;;;;4.18;2.92;;;19.30;99.90;;;;;;4178635;28;20436;-63
2023/07/22 02:29:21;;;;;;;5.03;3.45;;;19.30;99.90;;;;;;4177506;28;20171;-64
2023/07/22 02:31:22;;;;;;;10.57;2.97;;;19.40;99.90;;;;;;4178616;28;20074;-64
2023/07/22 02:33:23;;;;;;;4.00;2.70;;;19.40;99.90;;;;;;4177205;28;20025;-63
2023/07/22 02:35:25;;;;;;;3.88;3.30;;;19.40;99.90;;;;;;4177294;28;20045;-64
2023/07/22 02:37:26;;;;;;;4.93;3.13;;;19.40;99.90;;;;;;4177480;28;20098;-63
2023/07/22 02:39:27;;;;;;;4.72;3.13;;;19.40;99.90;;;;;;4177728;28;20485;-67
2023/07/22 02:41:28;;;;;;;8.18;3.65;;;19.30;99.90;;;;;;4177912;28;20066;-67
2023/07/22 02:43:29;;;;;;;4.97;3.42;;;19.30;99.90;;;;;;4177708;28;20037;-63
2023/07/22 02:45:30;;;;;;;5.45;2.90;;;19.30;99.90;;;;;;4178017;28;20171;-63
2023/07/22 02:47:34;;;;;;;3.90;3.28;;;19.30;99.90;;;;;;4176777;28;20440;-63
2023/07/22 02:49:35;;;;;;;5.90;3.63;;;19.30;99.90;;;;;;4177946;28;20055;-63
2023/07/22 02:51:37;;;;;;;3.75;3.35;;;19.20;99.90;;;;;;4176976;28;20059;-63
2023/07/22 02:53:38;;;;;;;4.90;3.67;;;19.20;99.90;;;;;;4177825;28;20041;-64
2023/07/22 02:55:39;;;;;;;5.50;3.75;;;19.10;99.90;;;;;;4159265;28;20606;-63
2023/07/22 02:57:41;;;;;;;11.05;4.03;;;19.00;99.90;;;;;;4177399;28;20037;-63
2023/07/22 02:59:42;;;;;;;5.55;4.50;;;18.90;99.90;;;;;;4176065;28;20543;-63
2023/07/22 03:01:43;;;;;;;10.38;4.25;;;18.90;99.90;;;;;;4177906;28;20021;-63
2023/07/22 03:03:44;;;;;;;8.43;3.97;;;18.90;99.90;;;;;;4176998;28;20584;-63
2023/07/22 03:05:45;;;;;;;7.72;3.78;;;18.90;99.90;;;;;;4178136;28;20056;-64
2023/07/22 03:07:46;;;;;;;6.47;3.33;;;18.90;99.90;;;;;;4176889;28;20041;-65
2023/07/22 03:09:48;;;;;;;7.70;4.35;;;18.90;99.90;;;;;;4176996;28;20033;-64
2023/07/22 03:11:49;;;;;;;4.85;3.58;;;18.80;99.90;;;;;;4176227;28;20112;-63
2023/07/22 03:13:51;;;;;;;7.43;3.80;;;18.80;99.90;;;;;;4177245;28;20117;-64
2023/07/22 03:15:53;;;;;;;8.10;3.92;;;18.80;99.90;;;;;;4176821;28;20037;-62
2023/07/22 03:17:59;;;;;;;3.72;3.38;;;18.80;99.90;;;;;;4176235;28;20044;-63
2023/07/22 03:20:00;;;;;;;4.97;3.75;;;18.70;99.90;;;;;;4176871;28;20171;-63
2023/07/22 03:22:02;;;;;;;5.68;3.75;;;18.80;99.90;;;;;;4175919;28;20107;-63
2023/07/22 03:24:04;;;;;;;6.78;4.30;;;18.80;99.90;;;;;;4177735;28;20029;-64
2023/07/22 03:26:06;;;;;;;6.28;3.60;;;18.80;99.90;;;;;;4176552;28;20085;-63
2023/07/22 03:28:08;;;;;;;7.75;4.13;;;18.90;99.90;;;;;;4177664;28;20079;-63
2023/07/22 03:30:14;;;;;;;6.93;3.92;;;18.90;99.90;;;;;;4176127;28;20071;-63
2023/07/22 03:32:15;;;;;;;5.70;3.50;;;19.00;99.90;;;;;;4177540;28;20033;-63
2023/07/22 03:34:16;;;;;;;8.95;3.97;;;19.10;99.90;;;;;;4176270;28;20037;-63
2023/07/22 03:36:17;;;;;;;8.05;3.83;;;19.30;99.90;;;;;;4176497;28;20045;-63
2023/07/22 03:38:19;;;;;;;7.20;4.03;;;19.60;99.90;;;;;;4176144;28;20114;-64
2023/07/22 03:40:20;;;;;;;4.25;3.33;;;20.00;99.90;;;;;;4176797;28;20186;-64
2023/07/22 03:42:21;;;;;;;7.18;3.60;;;20.20;99.90;;;;;;4176631;28;20079;-64
2023/07/22 03:44:22;;;;;;;5.30;4.18;;;20.30;99.90;;;;;;4177383;28;20493;-63
2023/07/22 03:46:23;;;;;;;8.27;3.60;;;20.50;99.90;;;;;;4177068;28;20029;-63
2023/07/22 03:48:24;;;;;;;4.00;3.30;;;20.80;99.90;;;;;;4177032;28;20025;-63
2023/07/22 03:50:26;;;;;;;5.90;3.20;;;20.90;99.90;;;;;;4176475;28;20017;-64
2023/07/22 03:52:27;;;;;;;3.72;3.08;;;20.80;99.90;;;;;;4176499;28;20029;-66
2023/07/22 03:54:28;;;;;;;5.35;3.22;;;20.80;99.90;;;;;;4177862;28;20538;-63
2023/07/22 03:56:29;;;;;;;7.40;3.10;;;20.60;99.90;;;;;;4158364;28;20033;-63
2023/07/22 03:58:30;;;;;;;8.38;3.20;;;20.60;99.90;;;;;;4176823;28;20045;-61
2023/07/22 04:00:31;;;;;;;5.30;3.10;;;20.50;99.90;;;;;;4175435;28;20041;-62
2023/07/22 04:02:32;;;;;;;5.82;3.53;;;20.40;99.90;;;;;;4177455;28;20492;-63
2023/07/22 04:04:33;;;;;;;6.10;3.25;;;20.40;99.90;;;;;;4176501;28;20029;-62
2023/07/22 04:06:35;;;;;;;6.68;3.17;;;20.40;99.90;;;;;;4176726;28;20087;-61
2023/07/22 04:08:36;;;;;;;5.55;3.15;;;20.30;99.90;;;;;;4175699;28;20021;-62
2023/07/22 04:10:37;;;;;;;6.32;3.67;;;20.20;99.90;;;;;;4179540;28;20033;-61
2023/07/22 04:12:38;;;;;;;3.95;3.22;;;20.10;99.90;;;;;;4175212;28;20170;-61
2023/07/22 04:14:40;;;;;;;10.30;4.57;;;20.00;99.90;;;;;;4176476;28;20087;-62
2023/07/22 04:16:41;;;;;;;14.77;5.35;;;19.90;99.90;;;;;;4176586;28;20025;-62
2023/07/22 04:18:42;;;;;;;7.90;3.70;;;19.80;99.90;;;;;;4176871;28;20098;-63
2023/07/22 04:20:43;;;;;;;6.65;3.70;;;19.90;99.90;;;;;;4176194;28;20098;-62
2023/07/22 04:22:44;;;;;;;5.43;3.15;;;19.90;99.90;;;;;;4177480;28;20044;-62
2023/07/22 04:24:48;;;;;;;16.13;3.78;;;19.90;99.90;;;;;;4180407;28;20041;-62
2023/07/22 04:26:51;;;;;;;5.55;3.60;;;19.90;99.90;;;;;;4176883;28;20052;-63
2023/07/22 04:28:52;;;;;;;5.40;3.47;;;19.90;99.90;;;;;;4179951;28;20029;-63
2023/07/22 04:30:58;;;;;;;4.75;3.47;;;19.80;99.90;;;;;;4178348;28;20098;-61
2023/07/22 04:32:59;;;;;;;5.10;3.28;;;19.70;99.90;;;;;;4179752;28;20110;-61
2023/07/22 04:35:01;;;;;;;4.65;3.28;;;19.70;99.90;;;;;;4174650;28;20044;-64
2023/07/22 04:37:02;;;;;;;6.35;4.40;;;19.70;99.90;;;;;;4161848;28;20095;-62
2023/07/22 04:39:07;;;;;;;6.60;3.85;;;19.70;99.90;;;;;;4178239;28;20083;-60
2023/07/22 04:41:08;;;;;;;8.52;3.50;;;19.70;99.90;;;;;;4179053;28;20382;-62
2023/07/22 04:43:09;;;;;;;7.47;3.75;;;19.60;99.90;;;;;;4178522;28;20033;-61
2023/07/22 04:45:11;;;;;;;7.47;3.78;;;19.60;99.90;;;;;;4179851;28;20029;-61
2023/07/22 04:47:12;;;;;;;6.93;4.13;;;19.60;99.90;;;;;;4178396;28;20049;-60
2023/07/22 04:49:17;;;;;;;6.28;3.53;;;19.50;99.90;;;;;;4179051;28;20048;-61
2023/07/22 04:51:18;;;;;;;9.02;3.90;;;19.60;99.90;;;;;;4178876;28;20067;-68
2023/07/22 04:53:21;;;;;;;7.28;4.30;;;19.60;99.90;;;;;;4179188;28;20106;-61
2023/07/22 04:55:22;;;;;;;8.85;4.57;;;19.60;99.90;;;;;;4178646;28;20110;-60
2023/07/22 04:57:23;;;;;;;5.80;3.65;;;19.70;99.90;;;;;;4178465;28;20029;-61
2023/07/22 04:59:25;;;;;;;8.80;4.72;;;19.70;99.90;;;;;;4178891;28;20045;-60
2023/07/22 05:01:26;;;;;;;5.18;3.83;;;19.70;99.90;;;;;;4178387;28;20041;-60
2023/07/22 05:03:27;;;;;;;5.65;3.53;;;19.70;99.90;;;;;;4179613;28;20457;-61
2023/07/22 05:05:28;;;;;;;4.60;3.83;;;19.70;99.90;;;;;;4178225;28;20041;-59
2023/07/22 05:07:29;;;;;;;5.68;3.85;;;19.80;99.90;;;;;;4179600;28;20045;-59
2023/07/22 05:09:33;;;;;;;5.00;3.45;;;19.90;99.90;;;;;;4178222;28;20036;-60
2023/07/22 05:11:34;;;;;;;6.32;3.25;;;20.20;99.90;;;;;;4179712;28;20037;-64
2023/07/22 05:13:35;;;;;;;5.25;2.97;;;21.00;99.90;;;;;;4177856;28;20033;-60
2023/07/22 05:15:36;;;;;;;5.00;3.40;;;21.80;99.90;;;;;;4163844;28;20030;-61
2023/07/22 05:17:38;;;;;;;9.73;3.28;;;22.70;99.90;;;;;;4161194;28;20623;-60
2023/07/22 05:19:39;;;;;;;13.35;7.55;;;23.40;99.90;;;;;;4170403;28;20489;-60
2023/07/22 05:21:41;;;;;;;6.78;3.53;;;24.10;99.90;;;;;;4177675;28;20045;-60
2023/07/22 05:23:42;;;;;;;6.30;3.30;;;24.30;99.90;;;;;;4179075;28;20362;-60
2023/07/22 05:25:43;;;;;;;3.15;2.85;;;24.70;99.90;;;;;;4178498;28;20037;-60
2023/07/22 05:27:44;;;;;;;6.15;2.63;;;25.30;99.90;;;;;;4178127;28;20037;-59
2023/07/22 05:29:45;;;;;;;5.57;2.47;;;25.80;99.90;;;;;;4160686;28;20050;-60
2023/07/22 05:31:46;;;;;;;6.40;2.78;;;26.20;99.90;;;;;;4177255;28;20048;-60
2023/07/22 05:33:48;;;;;;;8.35;3.67;;;26.90;99.90;;;;;;4177860;28;20037;-61
2023/07/22 05:35:49;;;;;;;4.53;3.00;;;27.20;99.90;;;;;;4177274;28;20044;-60
2023/07/22 05:37:50;;;;;;;6.00;2.90;;;27.70;99.90;;;;;;4178759;28;20436;-61
2023/07/22 05:39:51;;;;;;;7.15;2.50;;;27.90;99.90;;;;;;4177300;28;20461;-61
2023/07/22 05:41:52;;;;;;;6.25;2.42;;;27.90;99.90;;;;;;4178328;28;20182;-61
2023/07/22 05:43:53;;;;;;;6.07;2.20;;;27.90;99.90;;;;;;4176903;28;20044;-61
2023/07/22 05:45:54;;;;;;;5.70;2.35;;;28.20;99.90;;;;;;4178986;28;20036;-61
2023/07/22 05:47:56;;;;;;;4.10;2.30;;;28.60;99.90;;;;;;4178050;28;20045;-60
2023/07/22 05:49:57;;;;;;;4.13;2.75;;;29.00;99.90;;;;;;4178167;28;20094;-63
2023/07/22 05:51:58;;;;;;;7.35;2.70;;;29.00;99.90;;;;;;4176843;28;20436;-61
2023/07/22 05:54:00;;;;;;;3.60;2.63;;;28.60;99.90;;;;;;4163622;28;20029;-61
2023/07/22 05:56:01;;;;;;;5.32;2.53;;;28.90;99.90;;;;;;4147225;28;20485;-64
2023/07/22 05:58:05;;;;;;;3.33;1.90;;;29.10;99.90;;;;;;4176589;28;20041;-62
2023/07/22 06:00:08;;;;;;;4.78;2.05;;;29.20;99.90;;;;;;4177879;28;20049;-63
2023/07/22 06:02:13;;;;;;;5.70;2.30;;;29.70;99.90;;;;;;4159000;28;20579;-60
2023/07/22 06:04:14;;;;;;;2.95;2.17;;;30.20;99.90;;;;;;4178017;28;20094;-59
2023/07/22 06:06:15;;;;;;;4.90;3.00;;;30.60;99.90;;;;;;4176569;28;20424;-63
2023/07/22 06:08:16;;;;;;;6.55;3.40;;;30.20;99.90;;;;;;4177012;28;20136;-62
2023/07/22 06:10:17;;;;;;;10.40;4.30;;;29.90;99.90;;;;;;4175943;28;20162;-60
2023/07/22 06:12:18;;;;;;;6.13;3.30;;;29.70;99.90;;;;;;4178174;28;20021;-61
2023/07/22 06:14:20;;;;;;;6.65;2.58;;;29.40;99.90;;;;;;4176434;28;20470;-60
2023/07/22 06:16:21;;;;;;;4.72;1.95;;;28.50;99.90;;;;;;4178088;28;20029;-61
2023/07/22 06:18:22;;;;;;;9.15;3.40;;;28.50;99.90;;;;;;4176950;28;20094;-62
2023/07/22 06:20:23;;;;;;;17.25;4.85;;;28.90;99.90;;;;;;4177416;28;20401;-61
2023/07/22 06:22:24;;;;;;;17.90;4.32;;;28.70;99.90;;;;;;4175930;28;20454;-60
2023/07/22 06:24:26;;;;;;;11.23;2.72;;;28.20;99.90;;;;;;4173385;28;20099;-62
2023/07/22 06:26:27;;;;;;;12.73;3.22;;;28.30;99.90;;;;;;4177254;28;20417;-61
2023/07/22 06:28:28;;;;;;;4.68;2.33;;;28.80;99.90;;;;;;4177535;28;20036;-59
2023/07/22 06:30:29;;;;;;;4.05;2.22;;;29.20;99.90;;;;;;4177732;28;20052;-59
2023/07/22 06:32:30;;;;;;;5.45;2.30;;;29.80;99.90;;;;;;4177110;28;20086;-60
2023/07/22 06:34:32;;;;;;;6.47;2.80;;;30.10;99.90;;;;;;4178217;28;20053;-59
2023/07/22 06:36:33;;;;;;;3.45;1.88;;;30.50;99.90;;;;;;4177077;28;20087;-59
2023/07/22 06:38:34;;;;;;;6.28;2.22;;;31.00;99.90;;;;;;4176629;28;20041;-58
2023/07/22 06:40:35;;;;;;;3.45;1.85;;;31.40;99.90;;;;;;4176417;28;20582;-59
2023/07/22 06:42:36;;;;;;;4.72;1.88;;;31.60;99.90;;;;;;4178588;28;20443;-60
2023/07/22 06:44:37;;;;;;;3.83;1.80;;;32.10;99.90;;;;;;4176323;28;20451;-63
2023/07/22 06:46:38;;;;;;;3.80;2.00;;;32.00;99.70;;;;;;4177314;28;20025;-60
2023/07/22 06:48:40;;;;;;;3.55;2.10;;;32.10;99.40;;;;;;4176315;28;20061;-59
2023/07/22 06:50:47;;;;;;;3.05;1.42;;;32.00;99.20;;;;;;4159615;28;20426;-62
2023/07/22 06:52:49;;;;;;;7.63;5.30;;;31.30;98.90;;;;;;4176115;28;20024;-58
2023/07/22 06:54:50;;;;;;;14.02;11.07;;;31.10;99.60;;;;;;4177819;28;20029;-61
2023/07/22 06:56:51;;;;;;;5.88;4.50;;;31.10;99.70;;;;;;4174445;28;20037;-61
2023/07/22 06:58:52;;;;;;;4.22;2.88;;;31.20;99.60;;;;;;4171515;28;20043;-64
2023/07/22 07:00:55;;;;;;;3.78;1.70;;;31.00;99.60;;;;;;4177490;28;20021;-60
2023/07/22 07:02:56;;;;;;;1.63;1.52;;;30.60;99.70;;;;;;4176417;28;20456;-64
2023/07/22 07:04:57;;;;;;;4.30;1.88;;;30.50;99.90;;;;;;4176577;28;20033;-60
2023/07/22 07:06:59;;;;;;;4.57;2.30;;;30.30;99.90;;;;;;4176378;28;20037;-60
2023/07/22 07:09:03;;;;;;;3.78;2.72;;;30.00;99.90;;;;;;4173102;28;20371;-60
2023/07/22 07:11:04;;;;;;;2.72;1.75;;;29.70;99.90;;;;;;4160150;28;20092;-59
2023/07/22 07:13:05;;;;;;;2.80;1.50;;;29.60;99.90;;;;;;4177629;28;20025;-60
2023/07/22 07:15:07;;;;;;;3.50;1.50;;;29.70;99.90;;;;;;4175465;28;20118;-61
2023/07/22 07:17:08;;;;;;;2.83;1.85;;;29.90;99.90;;;;;;4175810;28;20408;-59
2023/07/22 07:19:10;;;;;;;3.40;1.90;;;30.10;99.90;;;;;;4175915;28;20186;-59
2023/07/22 07:21:11;;;;;;;3.80;1.95;;;30.20;99.90;;;;;;4177201;28;20086;-59
2023/07/22 07:23:16;;;;;;;4.47;1.90;;;29.80;99.90;;;;;;4176224;28;20462;-59
2023/07/22 07:25:17;;;;;;;3.13;1.42;;;29.20;99.90;;;;;;4177285;28;20040;-60
2023/07/22 07:27:18;;;;;;;2.53;1.85;;;28.70;99.90;;;;;;4175837;28;20064;-62
2023/07/22 07:29:19;;;;;;;2.28;1.50;;;28.60;99.90;;;;;;4176797;28;20036;-61
2023/07/22 07:31:20;;;;;;;4.05;2.05;;;28.50;99.90;;;;;;4175160;28;20094;-60
2023/07/22 07:33:21;;;;;;;2.13;1.50;;;28.60;99.90;;;;;;4176296;28;20102;-61
2023/07/22 07:35:24;;;;;;;5.25;1.40;;;28.50;99.90;;;;;;4176445;28;20403;-61
2023/07/22 07:37:25;;;;;;;4.90;1.75;;;28.40;99.90;;;;;;4176480;28;20106;-60
2023/07/22 07:39:26;;;;;;;4.22;1.38;;;28.30;99.90;;;;;;4176745;28;20098;-60
2023/07/22 07:41:28;;;;;;;2.50;1.23;;;27.90;99.90;;;;;;4175845;28;20107;-62
2023/07/22 07:43:29;;;;;;;2.35;1.10;;;27.50;99.90;;;;;;4176861;28;20041;-60
2023/07/22 07:45:31;;;;;;;3.85;1.25;;;26.90;99.90;;;;;;4173948;28;20154;-58
2023/07/22 07:47:32;;;;;;;3.70;1.08;;;26.80;99.90;;;;;;4176543;28;20123;-60
2023/07/22 07:49:34;;;;;;;1.88;1.08;;;26.80;99.90;;;;;;4174925;28;20025;-59
2023/07/22 07:51:35;;;;;;;1.73;1.33;;;26.90;99.90;;;;;;4176008;28;20082;-56
2023/07/22 07:53:36;;;;;;;2.60;1.30;;;27.10;99.90;;;;;;4174012;28;20728;-60
2023/07/22 07:55:37;;;;;;;4.10;1.20;;;27.20;99.90;;;;;;4176640;28;20106;-59
2023/07/22 07:57:38;;;;;;;1.05;0.98;;;27.10;99.90;;;;;;4178476;28;20056;-59
2023/07/22 07:59:39;;;;;;;2.35;1.50;;;27.30;99.90;;;;;;4180130;28;20033;-60
2023/07/22 08:01:41;;;;;;;1.90;1.00;;;27.50;99.90;;;;;;4178839;28;20029;-57
2023/07/22 08:03:43;;;;;;;1.70;1.40;;;27.30;99.90;;;;;;4179670;28;20098;-64
2023/07/22 08:05:44;;;;;;;3.25;1.20;;;27.20;99.90;;;;;;4179737;28;20083;-57
2023/07/22 08:07:45;;;;;;;3.53;1.55;;;27.10;99.90;;;;;;4179237;28;20049;-57
2023/07/22 08:09:49;;;;;;;5.57;1.42;;;27.10;99.90;;;;;;4180219;28;20503;-60
2023/07/22 08:11:50;;;;;;;3.05;1.88;;;26.80;99.90;;;;;;4179042;28;20074;-58
2023/07/22 08:13:52;;;;;;;3.05;1.98;;;26.70;99.90;;;;;;4179881;28;20040;-59
2023/07/22 08:15:53;;;;;;;4.80;1.50;;;26.70;99.90;;;;;;4178081;28;20025;-61
2023/07/22 08:17:54;;;;;;;1.90;1.10;;;26.80;99.90;;;;;;4180044;28;20365;-59
2023/07/22 08:19:55;;;;;;;5.88;1.60;;;26.80;99.90;;;;;;4178962;28;20106;-61
2023/07/22 08:21:56;;;;;;;2.83;1.65;;;27.10;99.90;;;;;;4179693;28;20041;-58
2023/07/22 08:23:58;;;;;;;1.55;1.40;;;27.20;99.90;;;;;;4177256;28;20075;-60
2023/07/22 08:25:59;;;;;;;1.70;1.60;;;27.20;99.90;;;;;;4177816;28;20048;-60
2023/07/22 08:28:00;;;;;;;2.72;1.20;;;27.10;99.90;;;;;;4179127;28;20041;-60
2023/07/22 08:30:02;;;;;;;2.28;1.52;;;27.40;99.90;;;;;;4179969;28;20126;-59
2023/07/22 08:32:03;;;;;;;2.22;1.20;;;27.60;99.90;;;;;;4177618;28;20366;-57
2023/07/22 08:34:04;;;;;;;3.58;1.60;;;27.70;99.70;;;;;;4179018;28;20032;-63
2023/07/22 08:36:06;;;;;;;2.45;1.55;;;27.90;99.50;;;;;;4176471;28;20465;-60
2023/07/22 08:38:08;;;;;;;1.73;1.60;;;27.90;99.30;;;;;;4178340;28;20045;-61
2023/07/22 08:40:10;;;;;;;4.57;1.55;;;27.90;99.20;;;;;;4179511;28;20059;-63
2023/07/22 08:42:13;;;;;;;36.47;6.90;;;27.80;99.20;;;;;;4177915;28;20106;-61
2023/07/22 08:44:20;;;;;;;16.02;2.70;;;27.30;99.10;;;;;;4179023;28;20033;-61
2023/07/22 08:46:27;;;;;;;4.22;2.00;;;27.20;99.40;;;;;;4178343;28;20067;-60
2023/07/22 08:48:34;;;;;;;5.35;1.80;;;27.40;99.50;;;;;;4178830;28;20099;-60
2023/07/22 08:50:55;;;;;;;2.08;1.20;;;27.70;99.40;;;;;;4178215;28;20021;-62
2023/07/22 08:52:57;;;;;;;2.25;1.70;;;28.10;99.00;;;;;;4178402;28;20041;-63
2023/07/22 08:54:59;;;;;;;2.47;1.58;;;28.20;98.80;;;;;;4179049;28;20083;-63
2023/07/22 08:57:01;;;;;;;3.00;1.45;;;28.20;98.50;;;;;;4178856;28;20036;-62
2023/07/22 08:59:02;;;;;;;3.53;1.63;;;28.20;98.40;;;;;;4177737;28;20036;-61
2023/07/22 09:01:04;;;;;;;2.45;1.40;;;28.20;98.40;;;;;;4178554;28;20118;-63
2023/07/22 09:03:06;;;;;;;2.30;1.33;;;28.20;98.30;;;;;;4177539;28;20076;-61
2023/07/22 09:05:09;;;;;;;3.75;1.48;;;28.10;98.20;;;;;;4179395;28;20106;-63
2023/07/22 09:07:12;;;;;;;2.42;1.17;;;28.20;98.20;;;;;;4178476;28;20729;-63
2023/07/22 09:09:15;;;;;;;3.08;1.33;;;28.10;98.30;;;;;;4178188;28;20485;-61
2023/07/22 09:11:16;;;;;;;1.80;1.52;;;28.10;98.40;;;;;;4177666;28;20122;-60
2023/07/22 09:13:20;;;;;;;2.35;1.40;;;28.10;98.70;;;;;;4179244;28;20053;-61
2023/07/22 09:15:23;;;;;;;5.50;1.30;;;28.10;98.50;;;;;;4178466;28;20067;-61
2023/07/22 09:17:24;;;;;;;2.20;1.30;;;28.10;98.20;;;;;;4178209;28;20045;-60
2023/07/22 09:19:26;;;;;;;4.18;1.40;;;28.20;98.30;;;;;;4177952;28;20107;-63
2023/07/22 09:21:30;;;;;;;2.63;1.67;;;28.30;98.10;;;;;;4178303;28;20053;-62
2023/07/22 09:23:34;;;;;;;1.90;1.52;;;28.50;98.10;;;;;;4177922;28;20041;-61
2023/07/22 09:25:35;;;;;;;1.55;1.30;;;28.50;97.40;;;;;;4178409;28;20029;-61
2023/07/22 09:27:36;;;;;;;5.55;1.80;;;28.10;97.70;;;;;;4179035;28;20075;-62
2023/07/22 09:29:44;;;;;;;4.30;1.80;;;27.90;97.30;;;;;;4177371;28;20102;-67
2023/07/22 09:31:50;;;;;;;7.13;1.83;;;27.80;98.00;;;;;;4179287;28;20032;-64
2023/07/22 09:33:55;;;;;;;2.05;1.40;;;27.80;97.90;;;;;;4177849;28;20082;-65
2023/07/22 09:35:56;;;;;;;2.10;1.58;;;27.60;97.90;;;;;;4178240;28;20087;-66
2023/07/22 09:37:59;;;;;;;2.58;1.30;;;27.40;98.30;;;;;;4177798;28;20082;-62
2023/07/22 09:40:00;;;;;;;1.88;1.58;;;27.30;98.60;;;;;;4179064;28;20091;-64
2023/07/22 09:42:03;;;;;;;2.63;1.90;;;27.40;98.70;;;;;;4177825;28;20029;-66
2023/07/22 09:44:09;;;;;;;2.15;1.48;;;27.50;98.80;;;;;;4178426;28;20041;-61
2023/07/22 09:46:11;;;;;;;2.88;1.50;;;27.60;98.70;;;;;;4176967;28;20143;-61
2023/07/22 09:48:12;;;;;;;3.28;1.48;;;27.60;98.70;;;;;;4177952;28;20041;-61
2023/07/22 09:50:16;;;;;;;1.40;1.30;;;27.70;98.70;;;;;;4177414;28;20013;-59
2023/07/22 09:52:17;;;;;;;3.22;1.60;;;27.60;98.50;;;;;;4178657;28;20021;-61
2023/07/22 09:54:19;;;;;;;3.25;1.77;;;27.60;98.70;;;;;;4177611;28;20469;-64
2023/07/22 09:56:21;;;;;;;5.28;1.98;;;27.70;98.80;;;;;;4177579;28;20044;-64
2023/07/22 09:58:25;;;;;;;1.77;1.67;;;27.70;98.60;;;;;;4177450;28;20457;-61
2023/07/22 10:00:31;;;;;;;5.72;1.80;;;27.80;98.80;;;;;;4177924;28;20566;-60
2023/07/22 10:02:33;;;;;;;3.08;1.33;;;28.00;98.70;;;;;;4178154;28;20143;-66
2023/07/22 10:04:36;;;;;;;1.90;1.48;;;27.90;98.50;;;;;;4177606;28;20994;-61
2023/07/22 10:06:39;;;;;;;2.55;1.70;;;28.00;98.70;;;;;;4178384;28;20427;-62
2023/07/22 10:08:44;;;;;;;3.03;1.48;;;28.20;98.60;;;;;;4177292;28;20040;-64
2023/07/22 10:10:51;;;;;;;1.77;1.45;;;28.40;98.40;;;;;;4178502;28;20036;-60
2023/07/22 10:12:53;;;;;;;2.05;1.45;;;28.60;98.10;;;;;;4176744;28;20441;-61
2023/07/22 10:14:55;;;;;;;8.45;2.03;;;28.70;97.60;;;;;;4177626;28;20037;-64
2023/07/22 10:16:56;;;;;;;1.60;1.50;;;28.70;97.40;;;;;;4177247;28;20119;-61
2023/07/22 10:18:59;;;;;;;3.50;1.58;;;28.80;97.30;;;;;;4177464;28;20041;-62
2023/07/22 10:21:01;;;;;;;1.80;1.70;;;28.70;97.10;;;;;;4176880;28;20013;-63
2023/07/22 10:23:03;;;;;;;2.53;2.08;;;28.60;97.40;;;;;;4178361;28;20024;-61
2023/07/22 10:25:06;;;;;;;3.25;1.77;;;28.30;97.50;;;;;;4176615;28;20048;-61
2023/07/22 10:27:08;;;;;;;2.80;1.38;;;28.20;98.00;;;;;;4177744;28;20041;-60
2023/07/22 10:29:10;;;;;;;4.45;1.45;;;28.20;97.70;;;;;;4176418;28;20033;-63
2023/07/22 10:31:12;;;;;;;2.20;1.60;;;28.10;97.70;;;;;;4177713;28;20154;-61
2023/07/22 10:33:13;;;;;;;2.08;1.70;;;28.10;97.90;;;;;;4177158;28;20071;-62